Terminal Aerodrome Forecast
Issued by NWS Twin Cities, MN

Home | Current Version | Previous Version | Graphics & Text | Print | Product List | Glossary On
Versions: 1 2 3 4 5 6 7 8 9 10 11 12 13 14 15 16 17 18 19
000
FTUS43 KMPX 160536
TAFSTC
TAF
KSTC 160536Z 1606/1706 12006KT P6SM SCT100 OVC250
     FM160800 11005KT P6SM BKN090 OVC200
     FM160900 11007KT P6SM -SHRA OVC040
     FM161400 13008KT 6SM BR VCSH OVC008
     FM162100 15007KT 5SM SHRA BR OVC015
      TEMPO 1623/1703 3SM TSRA OVC020CB=

USA.gov is the U.S. government's official web portal to all federal, state and local government web resources and services.